Time;durP1;ratioP1;P1;durP2;ratioP2;P2;SDS_P1;SDS_P2;PMS_P1;PMS_P2;Temp;Humidity;BMP_temperature;BMP_pressure;BME280_temperature;BME280_humidity;BME280_pressure;Samples;Min_cycle;Max_cycle;Signal;HPM_P1;HPM_P2
2023/12/14 00:00:48;;;;;;;4.38;2.28;;;32.70;99.90;;;;;;5070677;28;20192;-78
2023/12/14 00:03:19;;;;;;;2.47;2.05;;;32.70;99.90;;;;;;5050370;28;20199;-77
2023/12/14 00:05:50;;;;;;;6.47;2.05;;;32.80;99.90;;;;;;5064168;28;20291;-78
2023/12/14 00:08:23;;;;;;;5.63;2.20;;;32.90;99.90;;;;;;5070862;28;20842;-77
2023/12/14 00:10:55;;;;;;;3.50;1.90;;;32.90;99.90;;;;;;5070907;28;20203;-76
2023/12/14 00:13:26;;;;;;;4.65;1.98;;;32.90;99.90;;;;;;5070759;28;20220;-77
2023/12/14 00:15:57;;;;;;;3.33;2.15;;;33.00;99.50;;;;;;5066669;28;20232;-77
2023/12/14 00:18:28;;;;;;;5.40;2.10;;;33.20;99.80;;;;;;5061346;28;20192;-76
2023/12/14 00:20:59;;;;;;;4.55;2.30;;;33.30;99.90;;;;;;5053017;28;20215;-77
2023/12/14 00:23:32;;;;;;;3.75;2.42;;;33.40;99.60;;;;;;5070434;28;20196;-77
2023/12/14 00:26:03;;;;;;;3.80;2.00;;;33.50;99.00;;;;;;5062445;28;20192;-77
2023/12/14 00:28:34;;;;;;;5.45;2.50;;;33.60;99.10;;;;;;5054521;28;20185;-78
2023/12/14 00:31:05;;;;;;;5.18;2.15;;;33.70;97.20;;;;;;5071034;28;20192;-78
2023/12/14 00:33:36;;;;;;;3.92;1.92;;;33.70;96.60;;;;;;5061582;28;20223;-77
2023/12/14 00:36:08;;;;;;;2.28;1.73;;;33.80;97.00;;;;;;5089069;28;20199;-78
2023/12/14 00:38:41;;;;;;;3.42;2.00;;;33.80;95.60;;;;;;5094829;28;20203;-78
2023/12/14 00:41:12;;;;;;;4.30;1.98;;;34.00;95.30;;;;;;5081562;28;20202;-78
2023/12/14 00:43:43;;;;;;;2.75;1.70;;;34.10;94.40;;;;;;5060449;28;20196;-78
2023/12/14 00:46:14;;;;;;;3.67;2.00;;;34.10;94.60;;;;;;5071382;28;20693;-78
2023/12/14 00:48:46;;;;;;;5.15;1.80;;;34.20;94.30;;;;;;5071422;28;20674;-77
2023/12/14 00:51:17;;;;;;;5.90;2.08;;;34.30;93.60;;;;;;5068087;28;20635;-77
2023/12/14 00:53:50;;;;;;;5.07;1.95;;;34.40;93.20;;;;;;5071829;28;20228;-77
2023/12/14 00:56:21;;;;;;;2.88;1.80;;;34.40;93.40;;;;;;5072400;28;20700;-77
2023/12/14 00:58:52;;;;;;;4.55;1.65;;;34.50;91.40;;;;;;5066766;28;20204;-76
2023/12/14 01:01:24;;;;;;;4.15;2.00;;;34.60;90.70;;;;;;5075247;28;20256;-75
2023/12/14 01:03:55;;;;;;;3.53;2.05;;;34.60;90.90;;;;;;5060767;28;20213;-77
2023/12/14 01:06:26;;;;;;;6.35;2.10;;;34.80;90.80;;;;;;5070122;28;20194;-77
2023/12/14 01:08:59;;;;;;;2.28;1.67;;;34.90;90.30;;;;;;5087431;28;20274;-76
2023/12/14 01:11:30;;;;;;;3.67;1.98;;;35.00;88.20;;;;;;5086617;28;20192;-77
2023/12/14 01:14:01;;;;;;;4.72;1.85;;;35.10;88.50;;;;;;5064625;28;20600;-76
2023/12/14 01:16:32;;;;;;;3.22;1.55;;;35.20;87.00;;;;;;5064559;28;20220;-76
2023/12/14 01:19:05;;;;;;;3.10;1.60;;;35.20;82.90;;;;;;5072795;28;20222;-77
2023/12/14 01:21:36;;;;;;;2.97;1.60;;;35.20;83.70;;;;;;5063798;28;20290;-78
2023/12/14 01:24:10;;;;;;;2.55;1.65;;;35.30;82.70;;;;;;5056971;28;20193;-78
2023/12/14 01:26:41;;;;;;;4.28;1.63;;;35.30;82.20;;;;;;5069358;28;20650;-77
2023/12/14 01:29:12;;;;;;;2.85;1.70;;;35.30;81.70;;;;;;5065426;28;20264;-78
2023/12/14 01:31:45;;;;;;;4.30;1.75;;;35.40;81.30;;;;;;5057721;28;20201;-78
2023/12/14 01:34:16;;;;;;;2.67;1.70;;;35.50;82.30;;;;;;5068124;28;20625;-79
2023/12/14 01:36:47;;;;;;;2.80;1.70;;;35.60;80.20;;;;;;5070211;28;20188;-77
2023/12/14 01:39:20;;;;;;;3.28;1.50;;;35.70;78.60;;;;;;5054928;28;20208;-78
2023/12/14 01:41:51;;;;;;;3.00;1.60;;;35.70;76.50;;;;;;5068580;28;20237;-78
2023/12/14 01:44:23;;;;;;;2.25;1.38;;;35.70;76.70;;;;;;5073943;28;20297;-78
2023/12/14 01:46:54;;;;;;;2.03;1.50;;;35.90;75.20;;;;;;5072908;28;20269;-77
2023/12/14 01:49:25;;;;;;;2.25;1.42;;;35.90;73.20;;;;;;5072302;28;20196;-77
2023/12/14 01:51:56;;;;;;;3.10;1.45;;;36.00;73.00;;;;;;5072025;28;20211;-77
2023/12/14 01:54:29;;;;;;;3.38;1.70;;;36.00;73.30;;;;;;5072325;28;20230;-77
2023/12/14 01:57:01;;;;;;;4.40;1.60;;;36.10;69.00;;;;;;5072533;28;20200;-77
2023/12/14 01:59:32;;;;;;;2.53;1.30;;;36.30;65.50;;;;;;5072347;28;20719;-77
2023/12/14 02:02:05;;;;;;;5.28;1.40;;;36.30;59.40;;;;;;5091152;28;20207;-78
2023/12/14 02:04:37;;;;;;;2.40;1.40;;;36.40;58.70;;;;;;5092898;28;20256;-76
2023/12/14 02:07:11;;;;;;;2.90;1.30;;;36.50;58.00;;;;;;5071763;28;20196;-77
2023/12/14 02:09:44;;;;;;;3.83;1.30;;;36.60;55.50;;;;;;5072573;28;20203;-76
2023/12/14 02:12:15;;;;;;;2.95;1.30;;;36.70;54.40;;;;;;5072874;28;20199;-77
2023/12/14 02:14:47;;;;;;;2.88;1.42;;;36.90;56.10;;;;;;5072577;28;20227;-77
2023/12/14 02:17:18;;;;;;;4.15;1.38;;;37.10;53.90;;;;;;5072989;28;20610;-76
2023/12/14 02:19:49;;;;;;;2.63;1.00;;;37.10;52.20;;;;;;5071145;28;20214;-77
2023/12/14 02:22:21;;;;;;;3.42;1.48;;;37.00;51.60;;;;;;5072149;28;20195;-77
2023/12/14 02:24:54;;;;;;;3.78;1.20;;;37.20;50.10;;;;;;5072113;28;20199;-77
2023/12/14 02:27:25;;;;;;;5.07;1.10;;;37.20;48.10;;;;;;5072457;28;20207;-77
2023/12/14 02:29:56;;;;;;;3.55;1.30;;;37.10;46.70;;;;;;5072601;28;20191;-77
2023/12/14 02:32:27;;;;;;;6.28;1.48;;;36.90;44.60;;;;;;5071307;28;20567;-77
2023/12/14 02:34:59;;;;;;;2.70;1.30;;;36.90;43.20;;;;;;5081497;28;20226;-77
2023/12/14 02:37:30;;;;;;;1.60;0.93;;;37.10;41.70;;;;;;5092427;28;20279;-77
2023/12/14 02:40:03;;;;;;;1.83;0.70;;;37.30;40.10;;;;;;5103975;28;20226;-77
2023/12/14 02:42:34;;;;;;;1.85;0.75;;;37.50;38.60;;;;;;5098052;28;20195;-77
2023/12/14 02:45:06;;;;;;;2.72;0.88;;;37.70;38.10;;;;;;5083497;28;20290;-77
2023/12/14 02:47:37;;;;;;;2.80;0.90;;;37.80;37.50;;;;;;5071447;28;20684;-76
2023/12/14 02:50:08;;;;;;;2.97;1.08;;;37.80;38.10;;;;;;5070339;28;20287;-77
2023/12/14 02:52:39;;;;;;;3.80;1.20;;;37.90;37.20;;;;;;5086766;28;20583;-77
2023/12/14 02:55:12;;;;;;;2.15;1.10;;;37.90;36.50;;;;;;5091832;28;20224;-77
2023/12/14 02:57:43;;;;;;;5.03;1.10;;;38.00;37.70;;;;;;5091747;28;20199;-77
2023/12/14 03:00:13;;;;;;;5.68;0.82;;;38.10;35.70;;;;;;5091762;28;20199;-76
2023/12/14 03:02:44;;;;;;;1.67;0.85;;;38.20;35.80;;;;;;5091580;28;20308;-77
2023/12/14 03:05:14;;;;;;;1.88;0.93;;;38.30;34.70;;;;;;5091600;28;20232;-77
2023/12/14 03:07:45;;;;;;;2.20;0.90;;;38.30;34.90;;;;;;5075002;28;20195;-78
2023/12/14 03:10:18;;;;;;;3.15;0.95;;;38.30;35.60;;;;;;5069431;28;20199;-78
2023/12/14 03:12:49;;;;;;;3.15;0.95;;;38.40;35.50;;;;;;5060276;28;20724;-77
2023/12/14 03:15:22;;;;;;;2.92;0.80;;;38.20;35.70;;;;;;5071316;28;20603;-78
2023/12/14 03:17:52;;;;;;;4.57;1.20;;;38.20;35.30;;;;;;5031369;28;20191;-77
2023/12/14 03:20:23;;;;;;;2.47;1.00;;;38.40;35.40;;;;;;5031617;28;20207;-76
2023/12/14 03:22:54;;;;;;;1.80;1.17;;;38.60;35.60;;;;;;5031668;28;20611;-76
2023/12/14 03:25:27;;;;;;;5.57;1.10;;;38.50;35.30;;;;;;5036083;28;20562;-76
2023/12/14 03:27:58;;;;;;;3.45;1.00;;;38.40;35.10;;;;;;5051828;28;20681;-77
2023/12/14 03:30:29;;;;;;;3.05;1.00;;;38.50;36.10;;;;;;5051421;28;20196;-78
2023/12/14 03:33:00;;;;;;;1.50;0.95;;;38.80;35.70;;;;;;5030399;28;20193;-77
2023/12/14 03:35:30;;;;;;;3.15;1.08;;;38.90;35.90;;;;;;5031498;28;20248;-78
2023/12/14 03:38:01;;;;;;;2.80;1.20;;;38.90;36.70;;;;;;5031073;28;20678;-77
2023/12/14 03:40:34;;;;;;;2.63;0.93;;;38.80;36.10;;;;;;5030871;28;20656;-76
2023/12/14 03:43:05;;;;;;;4.80;1.20;;;38.70;36.30;;;;;;5031286;28;20201;-76
2023/12/14 03:45:35;;;;;;;1.95;1.10;;;38.80;36.10;;;;;;5031501;28;20201;-76
2023/12/14 03:48:06;;;;;;;4.85;1.40;;;38.90;37.00;;;;;;5029543;28;20203;-76
2023/12/14 03:50:37;;;;;;;1.95;1.30;;;39.10;35.80;;;;;;5030619;28;20655;-77
2023/12/14 03:53:08;;;;;;;2.50;0.98;;;39.20;35.90;;;;;;5030586;28;20223;-77
2023/12/14 03:55:43;;;;;;;2.30;1.08;;;39.20;35.80;;;;;;5030942;28;20603;-76
2023/12/14 03:58:14;;;;;;;1.67;1.00;;;39.20;35.40;;;;;;5030451;28;20200;-78
2023/12/14 04:00:45;;;;;;;2.55;0.93;;;39.20;35.30;;;;;;5030383;28;20197;-77
2023/12/14 04:03:16;;;;;;;2.47;1.65;;;39.30;35.40;;;;;;5029748;28;20200;-78
2023/12/14 04:05:46;;;;;;;6.45;2.00;;;39.30;34.80;;;;;;5030839;28;20207;-77
2023/12/14 04:08:17;;;;;;;2.55;1.10;;;39.10;35.60;;;;;;5033800;28;20640;-77
2023/12/14 04:10:50;;;;;;;1.95;0.95;;;39.00;35.90;;;;;;5044638;28;20227;-77
2023/12/14 04:13:21;;;;;;;2.78;1.15;;;39.10;35.50;;;;;;5037558;28;20203;-76
2023/12/14 04:15:51;;;;;;;1.98;1.00;;;39.30;36.10;;;;;;5040320;28;20314;-77
2023/12/14 04:18:22;;;;;;;2.03;0.90;;;39.40;36.10;;;;;;5091610;28;20195;-77
2023/12/14 04:20:53;;;;;;;1.90;1.10;;;39.50;35.90;;;;;;5094701;28;20194;-77
2023/12/14 04:23:24;;;;;;;2.78;0.90;;;39.70;35.50;;;;;;5090425;28;20198;-77
2023/12/14 04:25:57;;;;;;;3.42;0.93;;;39.50;33.60;;;;;;5078335;28;20195;-76
2023/12/14 04:28:27;;;;;;;3.28;0.90;;;39.10;33.60;;;;;;5070670;28;20279;-77
2023/12/14 04:30:58;;;;;;;2.55;0.80;;;39.00;34.00;;;;;;5070573;28;20650;-77
2023/12/14 04:33:29;;;;;;;2.63;0.93;;;38.70;33.20;;;;;;5076068;28;20194;-77
2023/12/14 04:36:00;;;;;;;3.88;0.90;;;38.50;34.20;;;;;;5090701;28;20207;-76
2023/12/14 04:38:36;;;;;;;2.50;0.73;;;38.80;34.80;;;;;;5090221;28;20199;-77
2023/12/14 04:41:09;;;;;;;2.80;0.90;;;39.20;35.00;;;;;;5088180;28;20257;-76
2023/12/14 04:43:40;;;;;;;1.70;0.90;;;39.40;33.50;;;;;;5069421;28;20558;-77
2023/12/14 04:46:11;;;;;;;1.73;1.00;;;39.60;33.30;;;;;;5069939;28;20195;-77
2023/12/14 04:48:42;;;;;;;2.35;0.82;;;39.70;32.50;;;;;;5068817;28;20206;-75
2023/12/14 04:51:15;;;;;;;2.08;0.70;;;39.70;32.20;;;;;;5081976;28;20772;-78
2023/12/14 04:53:46;;;;;;;2.20;0.70;;;39.80;32.60;;;;;;5090070;28;20194;-76
2023/12/14 04:56:19;;;;;;;2.30;0.98;;;39.90;33.00;;;;;;5090105;28;20197;-77
2023/12/14 04:58:49;;;;;;;2.03;0.82;;;39.90;33.10;;;;;;5070429;28;20213;-76
2023/12/14 05:01:20;;;;;;;1.67;1.00;;;39.90;33.10;;;;;;5069879;28;20705;-77
2023/12/14 05:03:51;;;;;;;2.20;0.93;;;39.60;33.20;;;;;;5066422;28;20195;-77
2023/12/14 05:06:22;;;;;;;2.13;1.00;;;39.50;33.20;;;;;;5068878;28;20203;-76
2023/12/14 05:08:52;;;;;;;2.28;0.80;;;39.30;33.30;;;;;;5075618;28;20195;-77
2023/12/14 05:11:25;;;;;;;3.53;0.90;;;39.30;32.90;;;;;;5068641;28;20202;-76
2023/12/14 05:13:56;;;;;;;1.25;0.80;;;39.50;32.50;;;;;;5068704;28;20713;-76
2023/12/14 05:16:27;;;;;;;2.38;0.75;;;39.70;32.40;;;;;;5070786;28;20293;-76
2023/12/14 05:18:59;;;;;;;3.80;1.10;;;39.70;31.80;;;;;;5072767;28;20199;-77
2023/12/14 05:21:30;;;;;;;2.45;0.77;;;39.90;32.70;;;;;;5074152;28;20199;-77
2023/12/14 05:24:00;;;;;;;1.13;0.85;;;40.30;32.70;;;;;;5074738;28;20680;-75
2023/12/14 05:26:33;;;;;;;2.90;1.00;;;40.20;30.90;;;;;;5072584;28;20191;-77
2023/12/14 05:29:04;;;;;;;1.45;0.80;;;39.90;31.10;;;;;;5072025;28;20294;-77
2023/12/14 05:31:35;;;;;;;1.73;0.80;;;39.70;30.60;;;;;;5071767;28;20204;-77
2023/12/14 05:34:05;;;;;;;2.60;0.85;;;39.80;30.70;;;;;;5073145;28;20205;-76
2023/12/14 05:36:36;;;;;;;2.63;1.02;;;39.70;31.00;;;;;;5073482;28;20211;-76
2023/12/14 05:39:07;;;;;;;2.97;0.85;;;39.60;31.40;;;;;;5073280;28;20566;-76
2023/12/14 05:41:43;;;;;;;2.75;0.60;;;40.00;30.70;;;;;;5073724;28;20290;-76
2023/12/14 05:44:14;;;;;;;2.35;0.77;;;40.00;30.30;;;;;;5076082;28;20203;-77
2023/12/14 05:46:45;;;;;;;1.40;0.73;;;39.90;30.50;;;;;;5074250;28;20214;-75
2023/12/14 05:49:15;;;;;;;1.60;0.90;;;39.90;30.00;;;;;;5073350;28;20203;-77
2023/12/14 05:51:46;;;;;;;4.45;1.00;;;40.40;29.80;;;;;;5073197;28;20274;-76
2023/12/14 05:54:17;;;;;;;0.63;0.50;;;41.00;30.00;;;;;;5072951;28;20254;-77
2023/12/14 05:56:50;;;;;;;3.15;0.80;;;41.00;29.50;;;;;;5073504;28;20209;-76
2023/12/14 05:59:20;;;;;;;2.05;0.60;;;41.50;29.40;;;;;;5088023;28;20286;-76
2023/12/14 06:01:51;;;;;;;1.98;0.98;;;41.90;29.10;;;;;;5095778;28;20684;-77
2023/12/14 06:04:22;;;;;;;1.95;0.90;;;41.90;28.70;;;;;;5083130;28;20207;-77
2023/12/14 06:06:53;;;;;;;3.78;0.90;;;41.90;28.70;;;;;;5076198;28;20235;-78
2023/12/14 06:09:29;;;;;;;2.08;0.90;;;41.80;29.40;;;;;;5061297;28;20260;-76
2023/12/14 06:12:01;;;;;;;2.65;0.98;;;41.60;29.30;;;;;;5081462;28;20207;-75
2023/12/14 06:14:32;;;;;;;2.88;0.80;;;41.50;29.20;;;;;;5066594;28;20222;-77
2023/12/14 06:17:04;;;;;;;3.95;0.93;;;41.00;29.80;;;;;;5082264;28;20234;-76
2023/12/14 06:19:34;;;;;;;1.42;1.00;;;40.70;29.80;;;;;;5075548;28;20249;-76
2023/12/14 06:22:05;;;;;;;1.85;1.35;;;40.30;30.10;;;;;;5069045;28;20592;-76
2023/12/14 06:24:36;;;;;;;2.08;0.85;;;40.50;30.20;;;;;;5051721;28;20200;-76
2023/12/14 06:27:09;;;;;;;3.70;1.00;;;40.50;30.60;;;;;;5051511;28;20283;-76
2023/12/14 06:29:40;;;;;;;2.08;0.80;;;40.10;31.10;;;;;;5066225;28;20192;-77
2023/12/14 06:32:11;;;;;;;2.40;0.98;;;40.40;31.10;;;;;;5075710;28;20203;-76
2023/12/14 06:34:42;;;;;;;2.78;0.80;;;40.50;31.10;;;;;;5084143;28;20302;-76
2023/12/14 06:37:13;;;;;;;4.75;0.90;;;40.80;30.90;;;;;;5061303;28;20234;-77
2023/12/14 06:39:46;;;;;;;1.92;0.80;;;41.50;30.40;;;;;;5065485;28;20245;-78
2023/12/14 06:42:18;;;;;;;3.17;1.05;;;42.10;30.00;;;;;;5063944;28;20286;-77
2023/12/14 06:44:49;;;;;;;2.72;0.95;;;42.50;29.60;;;;;;5071098;28;20265;-76
2023/12/14 06:47:20;;;;;;;1.80;0.82;;;42.90;29.50;;;;;;5068151;28;20285;-76
2023/12/14 06:49:51;;;;;;;2.42;0.90;;;43.10;29.20;;;;;;5074694;28;20211;-77
2023/12/14 06:52:22;;;;;;;1.63;1.00;;;42.80;29.40;;;;;;5061933;28;20594;-77
2023/12/14 06:54:53;;;;;;;3.22;1.30;;;43.00;29.50;;;;;;5061097;28;20592;-76
2023/12/14 06:57:25;;;;;;;4.60;1.00;;;42.80;29.50;;;;;;5068392;28;20216;-77
2023/12/14 06:59:57;;;;;;;2.55;0.80;;;42.50;29.30;;;;;;5069035;28;20202;-76
2023/12/14 07:02:28;;;;;;;3.10;1.02;;;42.70;29.40;;;;;;5069586;28;20697;-77
2023/12/14 07:04:59;;;;;;;1.45;1.05;;;43.20;29.40;;;;;;5071382;28;20274;-76
2023/12/14 07:07:30;;;;;;;3.65;0.98;;;43.00;29.10;;;;;;5058814;28;20652;-76
2023/12/14 07:10:01;;;;;;;1.50;0.85;;;42.70;29.10;;;;;;5054449;28;20185;-76
2023/12/14 07:12:33;;;;;;;2.42;1.00;;;42.50;29.40;;;;;;5071775;28;20305;-77
2023/12/14 07:15:05;;;;;;;1.58;0.93;;;42.70;29.40;;;;;;5076892;28;20233;-75
2023/12/14 07:17:39;;;;;;;2.70;1.10;;;42.40;29.50;;;;;;5063428;28;20263;-75
2023/12/14 07:20:11;;;;;;;4.15;1.70;;;42.60;29.50;;;;;;5073639;28;20203;-76
2023/12/14 07:22:41;;;;;;;2.17;0.93;;;42.40;30.00;;;;;;5071529;28;20211;-76
2023/12/14 07:25:12;;;;;;;1.30;0.70;;;42.40;29.90;;;;;;5078589;28;20203;-76
2023/12/14 07:27:46;;;;;;;1.42;0.80;;;42.40;30.10;;;;;;5069652;28;20210;-75
2023/12/14 07:30:17;;;;;;;4.40;1.17;;;42.90;29.80;;;;;;5070765;28;20216;-75
2023/12/14 07:32:48;;;;;;;4.05;2.05;;;43.20;29.20;;;;;;5067931;28;20219;-74
2023/12/14 07:35:19;;;;;;;2.75;0.80;;;42.60;29.50;;;;;;5062453;28;20215;-75
2023/12/14 07:37:50;;;;;;;3.72;0.90;;;42.60;29.60;;;;;;5070782;28;20219;-75
2023/12/14 07:40:20;;;;;;;2.85;0.98;;;42.00;30.00;;;;;;5074936;28;20246;-75
2023/12/14 07:42:53;;;;;;;2.03;1.02;;;42.10;30.00;;;;;;5087731;28;20210;-75
2023/12/14 07:45:24;;;;;;;2.13;1.20;;;41.90;30.40;;;;;;5070249;28;20624;-75
2023/12/14 07:47:55;;;;;;;4.15;2.00;;;41.60;30.50;;;;;;5080858;28;20293;-74
2023/12/14 07:50:25;;;;;;;3.13;1.17;;;41.40;30.70;;;;;;5068607;28;20217;-75
2023/12/14 07:52:57;;;;;;;5.10;1.48;;;41.30;30.90;;;;;;5069309;28;20298;-75
2023/12/14 07:55:27;;;;;;;4.68;2.65;;;40.80;30.70;;;;;;5069750;28;20286;-75
2023/12/14 07:58:00;;;;;;;4.40;1.35;;;40.30;32.20;;;;;;5069244;28;20226;-76
2023/12/14 08:00:31;;;;;;;4.05;1.58;;;39.90;32.20;;;;;;5068321;28;20557;-75
2023/12/14 08:03:01;;;;;;;4.43;1.52;;;39.60;32.50;;;;;;5070417;28;20219;-75
2023/12/14 08:05:33;;;;;;;3.65;1.05;;;39.30;33.20;;;;;;5058512;28;20564;-75
2023/12/14 08:08:04;;;;;;;2.05;1.10;;;39.00;33.10;;;;;;5066410;28;20227;-74
2023/12/14 08:10:35;;;;;;;3.22;1.35;;;38.30;33.80;;;;;;5062362;28;20242;-75
2023/12/14 08:13:08;;;;;;;4.65;2.03;;;37.90;34.10;;;;;;5064121;28;20220;-76
2023/12/14 08:15:39;;;;;;;3.75;1.58;;;37.70;34.50;;;;;;5065659;28;20231;-76
2023/12/14 08:18:09;;;;;;;1.95;1.02;;;37.60;34.60;;;;;;5065085;28;20306;-76
2023/12/14 08:20:43;;;;;;;3.17;1.13;;;37.30;35.10;;;;;;5063835;28;20216;-76
2023/12/14 08:23:14;;;;;;;2.40;1.17;;;37.20;35.00;;;;;;5062500;28;20219;-76
2023/12/14 08:25:45;;;;;;;3.08;0.98;;;36.90;35.30;;;;;;5063778;28;20216;-75
2023/12/14 08:28:17;;;;;;;2.30;1.02;;;36.70;35.60;;;;;;5060419;28;20292;-76
2023/12/14 08:30:48;;;;;;;2.78;0.80;;;36.40;35.60;;;;;;5064241;28;20216;-76
2023/12/14 08:33:19;;;;;;;3.28;1.52;;;36.50;36.10;;;;;;5059968;28;20216;-76
2023/12/14 08:35:50;;;;;;;4.78;1.33;;;36.40;36.20;;;;;;5056507;28;20232;-76
2023/12/14 08:38:21;;;;;;;1.80;0.95;;;36.30;36.60;;;;;;5049950;28;20534;-76
2023/12/14 08:40:51;;;;;;;3.45;1.95;;;36.20;36.50;;;;;;5064595;28;20826;-76
2023/12/14 08:43:24;;;;;;;3.72;2.40;;;36.10;36.90;;;;;;5068677;28;20702;-76
2023/12/14 08:45:55;;;;;;;3.25;1.20;;;36.10;37.20;;;;;;5072350;28;20270;-77
2023/12/14 08:48:26;;;;;;;1.58;0.90;;;36.00;37.50;;;;;;5068971;28;20219;-76
2023/12/14 08:50:58;;;;;;;1.60;1.02;;;35.90;37.00;;;;;;5070526;28;20694;-77
2023/12/14 08:53:29;;;;;;;2.05;1.30;;;35.80;37.30;;;;;;5061928;28;20580;-77
2023/12/14 08:56:00;;;;;;;2.22;1.00;;;35.80;37.60;;;;;;5068294;28;20227;-77
2023/12/14 08:58:33;;;;;;;3.33;1.10;;;35.60;37.50;;;;;;5053934;28;20758;-77
2023/12/14 09:01:03;;;;;;;2.35;0.90;;;35.50;37.40;;;;;;5060662;28;20216;-77
2023/12/14 09:03:34;;;;;;;4.03;1.17;;;35.50;37.20;;;;;;5073089;28;20676;-77
2023/12/14 09:06:05;;;;;;;1.50;0.90;;;35.50;37.20;;;;;;5072041;28;20215;-77
2023/12/14 09:08:36;;;;;;;1.40;0.80;;;35.50;37.20;;;;;;5053222;28;20205;-76
2023/12/14 09:11:07;;;;;;;0.98;0.80;;;35.50;37.50;;;;;;5053810;28;20196;-76
2023/12/14 09:13:40;;;;;;;5.47;2.47;;;35.40;37.60;;;;;;5057719;28;20196;-75
2023/12/14 09:16:11;;;;;;;2.42;0.93;;;35.30;37.80;;;;;;5071475;28;20326;-76
2023/12/14 09:18:42;;;;;;;5.20;2.40;;;35.30;38.20;;;;;;5073153;28;20200;-75
2023/12/14 09:21:14;;;;;;;2.58;1.38;;;35.20;38.10;;;;;;5071308;28;20299;-76
2023/12/14 09:23:45;;;;;;;2.67;1.45;;;35.10;38.40;;;;;;5089425;28;20195;-75
2023/12/14 09:26:16;;;;;;;3.78;2.00;;;35.10;38.80;;;;;;5087431;28;20216;-76
2023/12/14 09:28:49;;;;;;;4.07;1.73;;;35.10;39.00;;;;;;5053670;28;20205;-75
2023/12/14 09:31:20;;;;;;;9.40;4.00;;;35.00;38.70;;;;;;5070922;28;20220;-75
2023/12/14 09:33:50;;;;;;;10.35;4.82;;;35.00;39.00;;;;;;5073108;28;20269;-75
2023/12/14 09:36:21;;;;;;;6.50;2.47;;;34.90;39.30;;;;;;5072185;28;20297;-75
2023/12/14 09:38:52;;;;;;;13.20;3.10;;;34.80;41.70;;;;;;5073400;28;20246;-77
2023/12/14 09:41:23;;;;;;;18.30;5.00;;;34.30;51.10;;;;;;5063593;28;20193;-76
2023/12/14 09:43:56;;;;;;;25.42;6.32;;;33.70;57.60;;;;;;5069850;28;20283;-76
2023/12/14 09:46:28;;;;;;;23.38;6.20;;;32.80;66.60;;;;;;5066597;28;20670;-76
2023/12/14 09:49:00;;;;;;;26.45;6.30;;;32.10;77.00;;;;;;5060411;28;20287;-76
2023/12/14 09:51:31;;;;;;;24.42;6.05;;;31.30;88.10;;;;;;5063266;28;20188;-76
2023/12/14 09:54:01;;;;;;;26.73;6.43;;;30.70;93.00;;;;;;5074120;28;20549;-76
2023/12/14 09:56:33;;;;;;;30.67;7.88;;;30.20;96.60;;;;;;5072830;28;20251;-76
2023/12/14 09:59:06;;;;;;;30.83;7.75;;;29.80;99.90;;;;;;5070156;28;20220;-75
2023/12/14 10:01:37;;;;;;;29.02;6.75;;;29.30;99.90;;;;;;5065050;28;20282;-75
2023/12/14 10:04:14;;;;;;;27.38;6.20;;;29.10;99.90;;;;;;5070867;28;20698;-76
2023/12/14 10:06:47;;;;;;;25.35;7.03;;;28.90;99.90;;;;;;5068312;28;20713;-75
2023/12/14 10:09:18;;;;;;;27.88;6.45;;;28.70;99.90;;;;;;5092530;28;20233;-76
2023/12/14 10:11:49;;;;;;;32.47;6.43;;;28.50;99.90;;;;;;5089840;28;20191;-76
2023/12/14 10:14:26;;;;;;;31.80;6.50;;;28.30;99.90;;;;;;5081423;28;20281;-76
2023/12/14 10:16:57;;;;;;;32.75;7.05;;;28.20;99.90;;;;;;5095209;28;20241;-76
2023/12/14 10:19:28;;;;;;;35.08;7.18;;;28.10;99.90;;;;;;5072008;28;20199;-76
2023/12/14 10:22:01;;;;;;;29.55;7.32;;;28.00;99.90;;;;;;5071456;28;20230;-76
2023/12/14 10:24:35;;;;;;;27.00;6.38;;;27.80;99.90;;;;;;5072409;28;20638;-76
2023/12/14 10:27:09;;;;;;;27.58;6.40;;;27.80;99.90;;;;;;5061385;28;20228;-77
2023/12/14 10:29:44;;;;;;;26.55;6.25;;;27.60;99.90;;;;;;5052156;28;20205;-76
2023/12/14 10:32:15;;;;;;;34.22;6.72;;;27.60;99.90;;;;;;5072636;28;20265;-75
2023/12/14 10:34:46;;;;;;;27.08;6.18;;;27.50;99.90;;;;;;5071822;28;20547;-76
2023/12/14 10:37:18;;;;;;;27.98;5.70;;;27.50;99.90;;;;;;5071208;28;20228;-76
2023/12/14 10:39:53;;;;;;;26.08;6.65;;;27.40;99.90;;;;;;5070751;28;20559;-76
2023/12/14 10:42:26;;;;;;;23.00;5.40;;;27.30;99.90;;;;;;5071636;28;20241;-75
2023/12/14 10:44:59;;;;;;;28.40;5.80;;;27.20;99.90;;;;;;5070612;28;20568;-77
2023/12/14 10:47:30;;;;;;;29.63;6.40;;;27.10;99.90;;;;;;5078046;28;20543;-75
2023/12/14 10:50:02;;;;;;;26.15;6.00;;;27.00;99.90;;;;;;5092588;28;20203;-76
2023/12/14 10:52:36;;;;;;;29.75;5.38;;;26.90;99.90;;;;;;5088362;28;20213;-75
2023/12/14 10:55:10;;;;;;;24.60;5.97;;;26.90;99.90;;;;;;5070606;28;20731;-75
2023/12/14 10:57:42;;;;;;;22.08;5.32;;;26.80;99.90;;;;;;5070520;28;20227;-75
2023/12/14 11:00:15;;;;;;;25.95;5.97;;;26.90;99.90;;;;;;5069478;28;20188;-75
2023/12/14 11:02:49;;;;;;;28.77;5.70;;;26.90;99.90;;;;;;5070118;28;20191;-75
2023/12/14 11:05:26;;;;;;;28.48;5.90;;;26.80;99.90;;;;;;5071423;28;20187;-75
2023/12/14 11:08:00;;;;;;;26.15;5.28;;;26.80;99.90;;;;;;5065615;28;20577;-76
2023/12/14 11:10:39;;;;;;;25.88;5.30;;;26.80;99.90;;;;;;5071150;28;20241;-75
2023/12/14 11:13:14;;;;;;;25.33;5.22;;;26.80;99.90;;;;;;5068617;28;20573;-75
2023/12/14 11:15:51;;;;;;;23.60;4.57;;;26.80;99.90;;;;;;5069782;28;20213;-75
2023/12/14 11:18:31;;;;;;;20.13;4.60;;;26.70;99.90;;;;;;5065577;28;20195;-75
2023/12/14 11:21:03;;;;;;;22.75;4.93;;;26.70;99.90;;;;;;5068463;28;20234;-75
2023/12/14 11:23:39;;;;;;;28.23;5.38;;;26.60;99.90;;;;;;5058135;28;20603;-75
2023/12/14 11:26:12;;;;;;;22.73;4.70;;;26.60;99.90;;;;;;5069464;28;20291;-75
2023/12/14 11:28:44;;;;;;;22.17;4.82;;;26.50;99.90;;;;;;5050822;28;20197;-75
2023/12/14 11:31:17;;;;;;;23.55;5.28;;;26.50;99.90;;;;;;5053259;28;20204;-76
2023/12/14 11:33:47;;;;;;;29.27;5.25;;;26.40;99.90;;;;;;5063471;28;20269;-77
2023/12/14 11:36:19;;;;;;;21.17;4.50;;;26.40;99.90;;;;;;5051826;28;20223;-77
2023/12/14 11:38:51;;;;;;;20.27;4.60;;;26.30;99.90;;;;;;5061347;28;20228;-76
2023/12/14 11:41:25;;;;;;;24.73;4.55;;;26.20;99.90;;;;;;5061191;28;20216;-77
2023/12/14 11:43:55;;;;;;;24.85;4.63;;;26.30;99.90;;;;;;5067814;28;20192;-75
2023/12/14 11:46:28;;;;;;;25.83;4.47;;;26.30;99.90;;;;;;5069627;28;20200;-75
2023/12/14 11:49:03;;;;;;;16.45;4.10;;;26.20;99.90;;;;;;5064482;28;20216;-75
2023/12/14 11:51:36;;;;;;;17.13;4.40;;;26.20;99.90;;;;;;5057500;28;20281;-75
2023/12/14 11:54:10;;;;;;;21.70;4.07;;;26.20;99.90;;;;;;5060546;28;20748;-75
2023/12/14 11:56:41;;;;;;;15.55;3.72;;;26.20;99.90;;;;;;5068453;28;20227;-76
2023/12/14 11:59:15;;;;;;;21.23;3.85;;;26.20;99.90;;;;;;5055619;28;20679;-76
2023/12/14 12:01:58;;;;;;;17.60;4.55;;;26.30;99.90;;;;;;5070266;28;20202;-76
2023/12/14 12:04:29;;;;;;;19.70;3.67;;;26.20;99.90;;;;;;5054267;28;20251;-75
2023/12/14 12:07:05;;;;;;;22.30;4.05;;;26.20;99.90;;;;;;5062550;28;20201;-76
2023/12/14 12:09:44;;;;;;;12.73;3.65;;;26.10;99.90;;;;;;5052198;28;20222;-75
2023/12/14 12:12:15;;;;;;;17.08;4.07;;;26.20;99.90;;;;;;5065039;28;20206;-75
2023/12/14 12:14:46;;;;;;;18.45;3.67;;;26.20;99.90;;;;;;5057528;28;20224;-75
2023/12/14 12:17:19;;;;;;;19.85;4.35;;;26.10;99.90;;;;;;5068238;28;20236;-76
2023/12/14 12:19:50;;;;;;;17.88;3.88;;;26.10;99.90;;;;;;5052352;28;20679;-76
2023/12/14 12:22:21;;;;;;;21.40;4.25;;;26.20;99.90;;;;;;5061899;28;20214;-76
2023/12/14 12:24:51;;;;;;;19.08;4.00;;;26.10;99.90;;;;;;5058453;28;20207;-77
2023/12/14 12:27:22;;;;;;;17.92;3.88;;;26.10;99.90;;;;;;5058647;28;20296;-76
2023/12/14 12:29:54;;;;;;;21.30;4.15;;;26.20;99.90;;;;;;5062518;28;20188;-76
2023/12/14 12:32:27;;;;;;;15.40;3.33;;;26.30;99.90;;;;;;5064804;28;20184;-76
2023/12/14 12:34:57;;;;;;;16.88;4.10;;;26.30;99.90;;;;;;5062652;28;20287;-76
2023/12/14 12:37:28;;;;;;;13.95;3.40;;;26.30;99.90;;;;;;5070409;28;20227;-76
2023/12/14 12:39:59;;;;;;;16.75;4.00;;;26.30;99.90;;;;;;5063334;28;20197;-76
2023/12/14 12:42:31;;;;;;;20.98;4.30;;;26.20;99.90;;;;;;5054618;28;20252;-76
2023/12/14 12:45:02;;;;;;;17.42;4.20;;;26.30;99.90;;;;;;5070644;28;20200;-76
2023/12/14 12:47:34;;;;;;;17.77;4.13;;;26.30;99.90;;;;;;5078467;28;20192;-75
2023/12/14 12:50:05;;;;;;;18.02;3.72;;;26.10;99.90;;;;;;5067937;28;20203;-76
2023/12/14 12:52:37;;;;;;;15.27;3.40;;;26.10;99.90;;;;;;5066202;28;20659;-75
2023/12/14 12:55:09;;;;;;;21.40;3.97;;;26.10;99.90;;;;;;5051228;28;20196;-75
2023/12/14 12:57:40;;;;;;;18.70;3.97;;;26.10;99.90;;;;;;5057518;28;20310;-76
2023/12/14 13:00:12;;;;;;;16.52;3.80;;;26.10;99.90;;;;;;5069795;28;20203;-75
2023/12/14 13:02:45;;;;;;;10.98;2.97;;;26.00;99.90;;;;;;5070514;28;20200;-75
2023/12/14 13:05:17;;;;;;;16.73;3.42;;;26.10;99.90;;;;;;5055875;28;20197;-75